Weather at Charlottesville Albemarle Airport

Public forecast

Using degrees Fahrenheit for public forecast. Weather courtesy of forecast.io.

Current aviation weather report (METAR) for Charlottesville Albemarle Airport

2024/06/16 20:53 (retrieved 13 minutes ago)

KCHO 162053Z 15005KT 10SM OVC065 29/16 A3015 RMK AO2 SLP204 T02890156 57014

Aviation forecast (TAF) for Charlottesville Albemarle Airport

2024/06/16 18:24 (retrieved 3 hours ago)

TAF KCHO 161722Z 1618/1718 17008G15KT P6SM SCT060 FM170000 18005KT P6SM FEW250 FM171200 17005KT P6SM FEW250 FM171700 17008G15KT P6SM SCT060